No particular awareness of the weather is required.    There are no Weather-warnings


Meteo18 Weather Cam more information Meteo18 Weather Cam


Thunder radar more information blitzortung!


Rain radar more information rain snow radar


Visit our other weather sites:

Template documentation
and downloads

And another site



Weather Underground History page Text

Daily Summary for November 12, 2017 Units:  English    Metric   Both
« Previous Day
Next Day »
Daily Weekly Monthly Yearly Custom
  High: Low: Average:
Temperature: 53.8 °F 39.6 °F 46.8 °F
Dew Point: 52.2 °F 35.6 °F 43.5 °F
Humidity: 95 % 76 % 88 %
Wind Speed: 23 mph 0 mph 9.3 mph
Wind Gust: 33 mph - -
Wind:- - WNW
Pressure: 30 in 29.7 in -
Precipitation: 0.2 in    
Historical Graphs
 
 
Tabular Data for November 12, 2017
Time Temperature Dew Point Pressure Wind Wind Speed Wind Gust Humidity Rainfall Rate (Hourly)
00:02 53.8 °F 52.2 °F 30 in West 4 mph 17 mph 94 % 0.01 in
00:07 53.6 °F 52.2 °F 30 in WSW 8 mph 17 mph 95 % 0.01 in
00:12 53.6 °F 52.2 °F 30 in West 5 mph 13 mph 95 % 0.01 in
00:17 53.4 °F 52 °F 30 in West 8 mph 13 mph 95 % 0 in
00:22 53.4 °F 52 °F 30 in WNW 6 mph 14 mph 95 % 0 in
00:32 53.4 °F 52 °F 30 in WSW 8 mph 14 mph 95 % 0.01 in
00:42 53.2 °F 51.8 °F 30 in West 10 mph 13 mph 95 % 0.01 in
00:47 53.2 °F 51.8 °F 30 in West 6 mph 13 mph 95 % 0.01 in
00:57 53.2 °F 51.8 °F 30 in West 7 mph 12 mph 95 % 0.01 in
01:02 53.2 °F 51.8 °F 30 in WSW 8 mph 15 mph 95 % 0.01 in
01:07 53.4 °F 52 °F 30 in West 9 mph 15 mph 95 % 0.01 in
01:12 53.2 °F 51.8 °F 30 in West 7 mph 18 mph 95 % 0.01 in
01:17 53.2 °F 51.8 °F 30 in WSW 12 mph 18 mph 95 % 0.01 in
01:22 53.1 °F 51.6 °F 30 in West 7 mph 17 mph 95 % 0.01 in
01:27 53.1 °F 51.6 °F 30 in WSW 10 mph 18 mph 95 % 0.02 in
01:32 53.1 °F 51.6 °F 30 in West 10 mph 18 mph 95 % 0.01 in
01:37 53.1 °F 51.6 °F 30 in WNW 5 mph 17 mph 95 % 0.01 in
01:42 53.1 °F 51.6 °F 30 in West 10 mph 20 mph 95 % 0.01 in
01:47 52.9 °F 51.4 °F 30 in West 9 mph 20 mph 95 % 0.01 in
01:52 52.9 °F 51.4 °F 30 in West 10 mph 15 mph 95 % 0.01 in
01:57 52.9 °F 51.4 °F 30 in West 6 mph 18 mph 95 % 0.01 in
02:02 52.9 °F 51.3 °F 30 in WNW 7 mph 18 mph 94 % 0.01 in
02:07 52.9 °F 51.3 °F 30 in WSW 8 mph 15 mph 94 % 0.01 in
02:12 52.9 °F 51.3 °F 30 in West 12 mph 16 mph 94 % 0.01 in
02:17 52.9 °F 51.3 °F 30 in West 8 mph 18 mph 94 % 0.01 in
02:22 52.2 °F 50.5 °F 30 in West 10 mph 18 mph 94 % 0 in
02:27 52 °F 50.4 °F 30 in WSW 8 mph 18 mph 94 % 0 in
02:32 52 °F 50.4 °F 30 in WSW 8 mph 17 mph 94 % 0 in
02:37 52 °F 50.4 °F 30 in WSW 8 mph 14 mph 94 % 0 in
09:07 51.6 °F 49.6 °F 29.8 in WNW 10 mph 23 mph 93 % 0 in
09:12 51.6 °F 49.6 °F 29.8 in SSW 8 mph 26 mph 93 % 0 in
09:17 51.6 °F 49.6 °F 29.8 in WSW 13 mph 26 mph 93 % 0 in
09:22 51.6 °F 49.6 °F 29.8 in West 15 mph 28 mph 93 % 0 in
09:27 51.6 °F 49.6 °F 29.8 in WSW 10 mph 28 mph 93 % 0 in
09:32 51.6 °F 49.6 °F 29.8 in West 8 mph 28 mph 93 % 0 in
09:42 51.8 °F 49.8 °F 29.8 in WSW 6 mph 25 mph 93 % 0 in
09:47 52 °F 49.6 °F 29.8 in WSW 17 mph 25 mph 92 % 0 in
09:52 52 °F 49.6 °F 29.8 in WSW 14 mph 23 mph 92 % 0 in
10:02 52.2 °F 49.8 °F 29.8 in WSW 7 mph 27 mph 92 % 0 in
10:07 52.2 °F 49.8 °F 29.8 in WSW 14 mph 29 mph 92 % 0 in
10:12 52.2 °F 49.8 °F 29.8 in WSW 13 mph 33 mph 92 % 0 in
10:17 52.2 °F 49.8 °F 29.8 in WSW 10 mph 33 mph 92 % 0 in
10:22 52.2 °F 50.2 °F 29.8 in WSW 10 mph 33 mph 93 % 0 in
10:32 52.2 °F 50.2 °F 29.8 in SW 17 mph 26 mph 93 % 0 in
10:42 52 °F 50.4 °F 29.8 in SW 12 mph 21 mph 94 % 0 in
10:52 52 °F 50.5 °F 29.8 in WSW 10 mph 21 mph 95 % 0.01 in
10:57 52 °F 50.5 °F 29.8 in WSW 7 mph 24 mph 95 % 0.02 in
11:02 52 °F 50.5 °F 29.8 in West 14 mph 24 mph 95 % 0.02 in
11:12 52.2 °F 50.7 °F 29.8 in WSW 10 mph 23 mph 95 % 0.02 in
11:17 52.2 °F 50.7 °F 29.8 in West 6 mph 23 mph 95 % 0.02 in
11:22 52.2 °F 50.7 °F 29.8 in West 11 mph 20 mph 95 % 0.02 in
11:32 52.3 °F 50.7 °F 29.8 in WSW 13 mph 20 mph 94 % 0.02 in
11:42 52.5 °F 50.9 °F 29.8 in West 21 mph 22 mph 94 % 0.02 in
11:47 52.5 °F 50.9 °F 29.8 in WSW 11 mph 22 mph 94 % 0.01 in
11:52 52.9 °F 51.3 °F 29.8 in NW 11 mph 22 mph 94 % 0 in
11:57 52.9 °F 51.3 °F 29.8 in WSW 14 mph 25 mph 94 % 0 in
12:02 52.9 °F 51.3 °F 29.8 in WSW 10 mph 25 mph 94 % 0 in
12:07 52.9 °F 50.9 °F 29.8 in West 16 mph 25 mph 93 % 0 in
12:12 52.9 °F 51.3 °F 29.8 in WSW 13 mph 25 mph 94 % 0 in
12:17 52.9 °F 51.3 °F 29.8 in WSW 12 mph 25 mph 94 % 0 in
12:22 52.9 °F 51.3 °F 29.7 in SW 10 mph 25 mph 94 % 0 in
12:32 53.1 °F 51.1 °F 29.7 in WSW 15 mph 20 mph 93 % 0.01 in
12:37 53.2 °F 51.3 °F 29.7 in West 13 mph 33 mph 93 % 0.01 in
12:42 53.2 °F 51.3 °F 29.7 in West 12 mph 33 mph 93 % 0.01 in
12:47 53.2 °F 51.3 °F 29.7 in West 14 mph 33 mph 93 % 0.01 in
12:52 53.6 °F 51.6 °F 29.7 in West 14 mph 28 mph 93 % 0.01 in
12:57 53.8 °F 51.8 °F 29.7 in West 17 mph 26 mph 93 % 0.01 in
13:02 53.8 °F 51.8 °F 29.7 in West 15 mph 26 mph 93 % 0.01 in
13:07 53.8 °F 51.8 °F 29.7 in WSW 18 mph 27 mph 93 % 0.01 in
13:12 53.8 °F 51.8 °F 29.7 in West 23 mph 27 mph 93 % 0.01 in
13:17 53.8 °F 51.8 °F 29.7 in West 12 mph 30 mph 93 % 0.01 in
13:22 53.8 °F 51.8 °F 29.7 in NW 9 mph 30 mph 93 % 0 in
13:27 52.2 °F 49.1 °F 29.8 in NNW 17 mph 33 mph 89 % 0.07 in
13:32 50.7 °F 48.2 °F 29.8 in NW 10 mph 33 mph 91 % 0.08 in
13:37 49.8 °F 47.7 °F 29.8 in NW 16 mph 33 mph 92 % 0.09 in
13:42 49.6 °F 47.7 °F 29.7 in WNW 10 mph 27 mph 93 % 0.1 in
13:47 49.5 °F 47.5 °F 29.8 in NW 10 mph 25 mph 93 % 0.1 in
13:52 49.5 °F 47.5 °F 29.8 in North 14 mph 23 mph 93 % 0.1 in
13:57 47.7 °F 45.1 °F 29.8 in North 13 mph 24 mph 91 % 0.11 in
14:02 46.9 °F 44.8 °F 29.8 in NW 14 mph 24 mph 92 % 0.11 in
14:07 46.6 °F 44.6 °F 29.8 in NNW 15 mph 27 mph 93 % 0.12 in
14:12 46.2 °F 44.2 °F 29.8 in NNE 10 mph 27 mph 93 % 0.13 in
14:17 46.2 °F 44.2 °F 29.8 in NNW 6 mph 27 mph 93 % 0.13 in
14:22 45.9 °F 43.9 °F 29.8 in WNW 7 mph 21 mph 93 % 0.13 in
14:27 45.9 °F 44.2 °F 29.8 in NW 10 mph 21 mph 94 % 0.06 in
14:32 45.7 °F 44.1 °F 29.8 in NW 15 mph 21 mph 94 % 0.06 in
14:37 45.7 °F 43.7 °F 29.8 in WSW 8 mph 19 mph 93 % 0.06 in
14:42 45.9 °F 43.7 °F 29.8 in NW 11 mph 19 mph 92 % 0.06 in
14:47 46 °F 43.5 °F 29.8 in NW 4 mph 18 mph 91 % 0.06 in
14:52 46.2 °F 43.7 °F 29.8 in NW 9 mph 18 mph 91 % 0.06 in
14:57 46.2 °F 43.7 °F 29.8 in West 11 mph 18 mph 91 % 0.05 in
15:02 46.4 °F 43.9 °F 29.8 in WNW 7 mph 17 mph 91 % 0.05 in
15:07 46.6 °F 44.1 °F 29.8 in NNW 11 mph 18 mph 91 % 0.03 in
15:17 46.6 °F 43.5 °F 29.8 in NW 8 mph 21 mph 89 % 0.02 in
15:22 46.6 °F 43.2 °F 29.8 in NNW 12 mph 21 mph 88 % 0.02 in
15:32 46.8 °F 42.4 °F 29.8 in WNW 10 mph 25 mph 85 % 0.01 in
15:37 46.8 °F 42.3 °F 29.8 in NNW 12 mph 30 mph 84 % 0 in
15:42 46.8 °F 41.9 °F 29.8 in WNW 9 mph 30 mph 83 % 0 in
15:47 46.6 °F 40.8 °F 29.8 in WNW 17 mph 21 mph 80 % 0 in
15:52 46.4 °F 39.2 °F 29.8 in WNW 8 mph 30 mph 76 % 0 in
15:57 46 °F 39.2 °F 29.8 in West 13 mph 30 mph 77 % 0 in
16:02 45.7 °F 39.2 °F 29.8 in NW 9 mph 30 mph 78 % 0 in
16:07 45.3 °F 39.2 °F 29.8 in WNW 8 mph 23 mph 79 % 0 in
16:12 45.1 °F 39 °F 29.8 in West 10 mph 23 mph 79 % 0 in
16:17 45 °F 38.8 °F 29.8 in WNW 11 mph 23 mph 79 % 0 in
16:22 45 °F 38.8 °F 29.8 in NW 14 mph 23 mph 79 % 0 in
16:27 45 °F 38.5 °F 29.8 in WNW 16 mph 24 mph 78 % 0 in
16:32 45.1 °F 38.7 °F 29.8 in WNW 16 mph 24 mph 78 % 0 in
16:37 45.3 °F 38.8 °F 29.8 in NW 13 mph 24 mph 78 % 0 in
16:42 45.3 °F 38.8 °F 29.8 in NNW 7 mph 24 mph 78 % 0 in
16:47 45.3 °F 38.8 °F 29.8 in WNW 9 mph 24 mph 78 % 0 in
16:52 45.3 °F 38.8 °F 29.8 in NW 6 mph 21 mph 78 % 0 in
16:57 45 °F 38.5 °F 29.8 in NNW 6 mph 21 mph 78 % 0 in
17:02 45 °F 38.8 °F 29.8 in NW 9 mph 21 mph 79 % 0 in
17:07 44.8 °F 38.7 °F 29.8 in NW 8 mph 19 mph 79 % 0 in
17:12 44.8 °F 39 °F 29.9 in WNW 9 mph 19 mph 80 % 0 in
17:17 44.4 °F 39.2 °F 29.9 in WNW 11 mph 14 mph 82 % 0 in
17:22 44.1 °F 38.8 °F 29.9 in NW 16 mph 21 mph 82 % 0 in
17:27 43.2 °F 38.3 °F 29.9 in NNW 9 mph 29 mph 83 % 0 in
17:32 42.6 °F 37.6 °F 29.9 in WNW 6 mph 29 mph 82 % 0 in
17:42 42.1 °F 37 °F 29.9 in NW 4 mph 22 mph 82 % 0 in
17:47 41.9 °F 36.9 °F 29.9 in NW 10 mph 16 mph 82 % 0 in
17:52 41.9 °F 36.5 °F 29.9 in WNW 10 mph 15 mph 81 % 0 in
17:57 41.7 °F 36.3 °F 29.9 in NW 7 mph 17 mph 81 % 0 in
18:02 41.7 °F 36.3 °F 29.9 in WNW 7 mph 17 mph 81 % 0 in
18:12 41.5 °F 36.1 °F 29.9 in NNW 9 mph 22 mph 81 % 0 in
18:17 41.4 °F 36.3 °F 29.9 in NW 7 mph 22 mph 82 % 0 in
18:22 41.4 °F 36.3 °F 29.9 in NNW 8 mph 16 mph 82 % 0 in
18:32 41.5 °F 36.5 °F 29.9 in WNW 11 mph 17 mph 82 % 0 in
18:42 41.4 °F 36.5 °F 29.9 in West 9 mph 20 mph 83 % 0 in
18:47 41.5 °F 36.7 °F 29.9 in NW 9 mph 18 mph 83 % 0 in
18:52 41.5 °F 36.7 °F 29.9 in NNW 8 mph 18 mph 83 % 0 in
18:57 41.5 °F 36.7 °F 29.9 in West 7 mph 18 mph 83 % 0 in
19:02 41.5 °F 36.7 °F 29.9 in WNW 12 mph 18 mph 83 % 0 in
19:07 41.5 °F 36.7 °F 29.9 in NNW 3 mph 16 mph 83 % 0 in
19:12 41.4 °F 36.5 °F 29.9 in NW 7 mph 15 mph 83 % 0 in
19:17 41.2 °F 36.5 °F 29.9 in WNW 7 mph 15 mph 83 % 0 in
19:22 41 °F 36.5 °F 29.9 in WNW 18 mph 18 mph 84 % 0 in
19:27 40.8 °F 36.3 °F 29.9 in WNW 9 mph 18 mph 84 % 0 in
19:32 40.8 °F 36.3 °F 29.9 in NNW 8 mph 18 mph 84 % 0 in
19:37 40.6 °F 36.1 °F 29.9 in NNW 4 mph 18 mph 84 % 0 in
19:47 40.6 °F 36.1 °F 29.9 in NW 3 mph 17 mph 84 % 0 in
19:57 40.6 °F 36.5 °F 29.9 in NW 7 mph 13 mph 85 % 0 in
20:07 40.6 °F 36.5 °F 30 in NNW 12 mph 13 mph 85 % 0 in
20:12 40.6 °F 36.5 °F 30 in NNW 7 mph 14 mph 85 % 0 in
20:17 40.6 °F 36.5 °F 30 in NW 4 mph 16 mph 85 % 0 in
20:27 40.5 °F 36.7 °F 30 in NW 2 mph 16 mph 86 % 0 in
20:32 40.3 °F 36.5 °F 30 in WNW 4 mph 13 mph 86 % 0 in
20:37 40.3 °F 36.5 °F 30 in NW 2 mph 13 mph 86 % 0 in
20:42 40.1 °F 36.3 °F 30 in NW 3 mph 13 mph 86 % 0 in
20:47 40.1 °F 36.3 °F 30 in NNW 3 mph 12 mph 86 % 0 in
20:52 39.9 °F 36.1 °F 30 in NW 2 mph 12 mph 86 % 0 in
20:57 39.9 °F 36.1 °F 30 in NW 3 mph 12 mph 86 % 0 in
21:02 39.9 °F 36.1 °F 30 in WNW 3 mph 11 mph 86 % 0 in
21:07 39.9 °F 36.1 °F 30 in WNW 3 mph 11 mph 86 % 0 in
21:12 39.9 °F 36.1 °F 30 in NNW 5 mph 9 mph 86 % 0 in
21:17 39.7 °F 35.6 °F 30 in NW 6 mph 9 mph 85 % 0 in
21:22 39.7 °F 35.6 °F 30 in NNW 5 mph 11 mph 85 % 0 in
21:32 39.7 °F 35.6 °F 30 in NW 4 mph 14 mph 85 % 0 in
21:37 39.7 °F 35.6 °F 30 in West 2 mph 14 mph 85 % 0 in
21:42 39.6 °F 35.8 °F 30 in WNW 5 mph 14 mph 86 % 0 in
21:47 39.6 °F 35.8 °F 30 in NW 5 mph 9 mph 86 % 0 in
21:52 39.7 °F 36 °F 30 in WNW 8 mph 12 mph 86 % 0 in
21:57 39.7 °F 36 °F 30 in West 8 mph 12 mph 86 % 0 in
22:02 39.9 °F 35.8 °F 30 in NW 6 mph 12 mph 85 % 0 in
22:07 40.1 °F 36 °F 30 in Calm   11 mph 85 % 0 in
22:12 40.5 °F 36.3 °F 30 in West 9 mph 19 mph 85 % 0 in
22:17 40.6 °F 36.1 °F 30 in NNW 13 mph 19 mph 84 % 0 in
22:22 40.8 °F 36.1 °F 30 in WNW 9 mph 19 mph 83 % 0 in
22:27 40.8 °F 36.1 °F 30 in NW 7 mph 13 mph 83 % 0 in
22:32 41 °F 36.3 °F 30 in NW 5 mph 13 mph 83 % 0 in
22:37 41 °F 36.3 °F 30 in NW 8 mph 13 mph 83 % 0 in
22:42 41 °F 36.3 °F 30 in West 5 mph 13 mph 83 % 0 in
22:47 41 °F 36.3 °F 30 in WNW 13 mph 15 mph 83 % 0 in
22:52 41 °F 36.3 °F 30 in WNW 5 mph 17 mph 83 % 0 in
23:02 41 °F 36.3 °F 30 in NNW 8 mph 17 mph 83 % 0 in
23:07 41 °F 36.3 °F 30 in WNW 11 mph 14 mph 83 % 0 in
23:12 41.2 °F 36.5 °F 30 in NW 5 mph 16 mph 83 % 0 in
23:17 41.2 °F 36.5 °F 30 in NW 8 mph 18 mph 83 % 0 in
23:22 41.2 °F 36.5 °F 30 in North 7 mph 18 mph 83 % 0 in
23:27 41.2 °F 36.5 °F 30 in NW 10 mph 16 mph 83 % 0 in
23:32 41 °F 36.3 °F 30 in WNW 7 mph 16 mph 83 % 0 in
23:37 41.2 °F 36.5 °F 30 in NW 4 mph 16 mph 83 % 0 in
23:42 41.2 °F 36.5 °F 30 in NW 5 mph 16 mph 83 % 0 in
23:52 41 °F 36.3 °F 30 in WNW 10 mph 16 mph 83 % 0 in
23:57 41 °F 36.3 °F 30 in NW 4 mph 16 mph 83 % 0 in
Meteo18
Compliments of Weather Underground - 4 mb

Script developed by  Jim McMurry - jmcmurry@mwt.net Adapted for the template by  Wim van der Kuil - Leuven-Template.eu

You find our weather info also at:

European Weather Network

Weather Underground

Equipment we use:

Weather-station
Davis Vue

Weather-program
Meteohub

Weather-server
Raspberry PI 2 B+

Provider
1 and 1

Davis Vue

Meteohub

Raspberry PI 2 B+

1 and 1